Time;durP1;ratioP1;P1;durP2;ratioP2;P2;SDS_P1;SDS_P2;PMS_P1;PMS_P2;Temp;Humidity;BMP_temperature;BMP_pressure;BME280_temperature;BME280_humidity;BME280_pressure;Samples;Min_cycle;Max_cycle;Signal;HPM_P1;HPM_P2
2022/10/03 00:00:09;;;;;;;2.25;0.90;;;;;;;21.82;57.55;101278.50;5074162;28;20074;-81
2022/10/03 00:02:38;;;;;;;1.25;0.98;;;;;;;21.81;57.15;101277.59;5049091;28;20170;-81
2022/10/03 00:05:45;;;;;;;1.60;0.93;;;;;;;21.65;57.64;101276.47;5072913;28;20027;-81
2022/10/03 00:08:19;;;;;;;0.80;0.80;;;;;;;21.71;57.89;101280.97;4982783;28;20092;-82
2022/10/03 00:11:03;;;;;;;0.77;0.77;;;;;;;21.71;57.57;101270.34;5040953;28;20093;-82
2022/10/03 00:13:34;;;;;;;1.13;0.77;;;;;;;21.67;57.69;101269.38;5072758;28;20028;-82
2022/10/03 00:16:32;;;;;;;1.00;0.82;;;;;;;21.72;57.48;101269.50;5052151;28;20032;-81
2022/10/03 00:19:25;;;;;;;1.30;0.90;;;;;;;21.68;57.35;101267.66;5041191;28;20473;-81
2022/10/03 00:22:10;;;;;;;1.00;1.00;;;;;;;21.61;57.89;101258.69;5073424;28;20714;-80
2022/10/03 00:24:48;;;;;;;1.13;1.00;;;;;;;21.71;57.17;101267.69;5072713;28;20035;-81
2022/10/03 00:27:25;;;;;;;0.73;0.73;;;;;;;21.66;57.98;101261.41;5073322;28;20024;-81
2022/10/03 00:29:53;;;;;;;1.35;0.90;;;;;;;21.69;58.05;101262.34;5068848;28;20049;-81
2022/10/03 00:32:22;;;;;;;0.90;0.90;;;;;;;21.66;58.16;101253.44;5071290;28;20028;-81
2022/10/03 00:34:50;;;;;;;0.85;0.82;;;;;;;21.69;57.53;101251.69;5060029;28;20035;-81
2022/10/03 00:37:18;;;;;;;2.65;0.85;;;;;;;21.67;58.10;101255.22;5071877;28;20043;-81
2022/10/03 00:39:52;;;;;;;1.45;0.90;;;;;;;21.72;58.02;101245.56;5072786;28;20540;-82
2022/10/03 00:43:19;;;;;;;0.80;0.80;;;;;;;21.64;58.59;101239.22;5072521;28;20036;-80
2022/10/03 00:45:59;;;;;;;0.70;0.70;;;;;;;21.62;58.90;101233.88;5022114;28;20029;-82
2022/10/03 00:49:22;;;;;;;0.80;0.80;;;;;;;21.58;58.30;101231.16;5030147;28;20072;-82
2022/10/03 00:51:53;;;;;;;1.05;0.73;;;;;;;21.64;58.38;101239.22;5003488;28;20088;-82
2022/10/03 00:54:31;;;;;;;1.83;0.90;;;;;;;21.57;58.36;101237.31;5010695;28;20527;-79
2022/10/03 00:56:57;;;;;;;0.60;0.60;;;;;;;21.63;57.84;101243.66;5045915;28;20093;-81
2022/10/03 00:59:46;;;;;;;1.05;0.90;;;;;;;21.64;58.04;101248.09;5072799;28;20032;-81
2022/10/03 01:02:41;;;;;;;1.42;1.00;;;;;;;21.66;58.50;101238.38;5043649;28;20031;-81
2022/10/03 01:05:45;;;;;;;1.40;0.75;;;;;;;21.61;58.16;101244.47;5001561;28;20034;-80
2022/10/03 01:08:29;;;;;;;1.00;0.82;;;;;;;21.60;57.98;101238.28;5063857;28;20024;-81
2022/10/03 01:11:11;;;;;;;2.00;0.82;;;;;;;21.50;58.01;101221.25;5071676;28;20028;-81
2022/10/03 01:14:03;;;;;;;1.92;0.88;;;;;;;21.59;58.49;101227.59;5065547;28;20097;-81
2022/10/03 01:16:50;;;;;;;1.50;0.90;;;;;;;21.62;57.67;101220.59;5064486;28;20121;-81
2022/10/03 01:19:31;;;;;;;1.23;0.65;;;;;;;21.55;57.98;101219.59;5072631;28;20416;-81
2022/10/03 01:22:12;;;;;;;1.67;0.90;;;;;;;21.55;57.80;101221.38;5072237;28;20043;-81
2022/10/03 01:25:04;;;;;;;2.58;1.00;;;;;;;21.65;57.50;101223.31;5059332;28;20470;-81
2022/10/03 01:30:21;;;;;;;1.88;1.00;;;;;;;21.59;57.68;101217.91;5058550;28;20041;-81
2022/10/03 01:30:27;;;;;;;2.97;0.95;;;;;;;21.54;57.62;101224.88;5064986;28;20513;-81
2022/10/03 01:33:08;;;;;;;1.30;0.88;;;;;;;21.53;58.38;101213.38;5065050;28;20057;-81
2022/10/03 01:36:05;;;;;;;1.25;0.80;;;;;;;21.59;57.30;101207.25;5077412;28;20089;-81
2022/10/03 01:38:59;;;;;;;0.90;0.90;;;;;;;21.55;57.66;101208.97;5064329;28;20016;-81
2022/10/03 01:41:44;;;;;;;1.27;1.00;;;;;;;21.50;57.81;101205.31;5053185;28;20020;-81
2022/10/03 01:44:18;;;;;;;1.10;1.00;;;;;;;21.51;58.99;101214.22;5071977;28;20029;-82
2022/10/03 01:46:52;;;;;;;1.10;0.90;;;;;;;21.61;57.54;101220.56;5037647;28;20138;-81
2022/10/03 01:49:27;;;;;;;1.13;0.80;;;;;;;21.52;57.60;101216.00;5042717;28;20025;-81
2022/10/03 01:52:09;;;;;;;1.00;0.80;;;;;;;21.44;57.40;101204.34;5056313;28;20036;-81
2022/10/03 01:54:56;;;;;;;0.75;0.75;;;;;;;21.49;58.70;101219.50;5037062;28;20029;-81
2022/10/03 01:57:43;;;;;;;0.80;0.80;;;;;;;21.50;57.94;101226.59;5056592;28;20036;-82
2022/10/03 02:00:19;;;;;;;0.77;0.77;;;;;;;21.55;57.73;101216.94;5069934;28;20578;-81
2022/10/03 02:02:51;;;;;;;1.00;0.90;;;;;;;21.31;57.49;101185.53;5067653;28;20101;-81
2022/10/03 02:05:37;;;;;;;0.82;0.82;;;;;;;21.47;57.72;101220.34;5053854;28;20285;-81
2022/10/03 02:08:26;;;;;;;1.05;0.90;;;;;;;21.46;57.57;101213.22;5070443;28;20020;-81
2022/10/03 02:11:07;;;;;;;1.13;0.80;;;;;;;21.45;58.07;101215.00;5069780;28;20032;-81
2022/10/03 02:13:45;;;;;;;0.98;0.85;;;;;;;21.43;57.74;101219.38;5053251;28;20028;-82
2022/10/03 02:16:26;;;;;;;1.08;0.70;;;;;;;21.44;57.50;101213.22;5070437;28;20383;-82
2022/10/03 02:19:24;;;;;;;1.25;0.80;;;;;;;21.45;57.55;101217.66;5069514;28;20044;-82
2022/10/03 02:21:55;;;;;;;0.98;0.82;;;;;;;21.42;57.70;101216.69;5036704;28;20111;-82
2022/10/03 02:24:33;;;;;;;1.17;0.90;;;;;;;21.40;57.80;101218.41;5071004;28;20036;-82
2022/10/03 02:27:20;;;;;;;1.00;0.70;;;;;;;21.38;57.53;101221.06;5057251;28;20085;-82
2022/10/03 02:30:02;;;;;;;3.03;0.90;;;;;;;21.39;57.25;101206.88;5049465;28;20574;-82
2022/10/03 02:33:02;;;;;;;0.90;0.85;;;;;;;21.38;57.56;101207.78;5043630;28;20040;-82
2022/10/03 02:35:50;;;;;;;0.63;0.63;;;;;;;21.32;58.01;101208.56;5059325;28;20025;-81
2022/10/03 02:39:07;;;;;;;0.90;0.90;;;;;;;21.41;57.97;101212.25;5052042;28;20035;-82
2022/10/03 02:41:36;;;;;;;1.30;0.88;;;;;;;21.35;57.89;101207.72;5016822;28;20028;-81
2022/10/03 02:44:23;;;;;;;0.95;0.90;;;;;;;21.40;57.70;101211.34;5068754;28;20433;-81
2022/10/03 02:47:04;;;;;;;;;;;;;;;21.36;57.56;101214.81;5070200;28;20024;-81
2022/10/03 02:50:07;;;;;;;1.27;0.80;;;;;;;21.31;57.85;101197.91;5060754;28;19915;-81
2022/10/03 02:52:51;;;;;;;0.82;0.70;;;;;;;21.32;58.02;101199.69;5062195;28;20090;-81
2022/10/03 02:55:26;;;;;;;2.05;0.98;;;;;;;21.33;56.80;101212.09;5069446;28;20025;-81
2022/10/03 02:58:20;;;;;;;0.90;0.82;;;;;;;21.34;58.26;101204.16;5057663;28;20028;-81
2022/10/03 03:01:06;;;;;;;0.90;0.80;;;;;;;21.28;57.96;101189.88;5069558;28;20099;-81
2022/10/03 03:03:43;;;;;;;0.68;0.68;;;;;;;21.32;57.85;101203.25;5069032;28;20104;-81
2022/10/03 03:06:51;;;;;;;0.95;0.85;;;;;;;21.38;57.67;101209.50;5060459;28;20083;-81
2022/10/03 03:09:54;;;;;;;1.00;0.85;;;;;;;21.37;57.26;101221.03;4988434;28;20121;-81
2022/10/03 03:12:43;;;;;;;2.42;0.90;;;;;;;21.33;56.86;101220.06;4988436;28;20031;-81
2022/10/03 03:15:30;;;;;;;2.83;0.82;;;;;;;21.31;57.77;101224.47;5038362;28;20123;-81
2022/10/03 03:18:10;;;;;;;0.70;0.70;;;;;;;21.29;56.46;101223.53;5069624;28;20417;-81
2022/10/03 03:20:51;;;;;;;2.30;0.85;;;;;;;21.27;57.33;101222.63;5052743;28;20094;-81
2022/10/03 03:23:35;;;;;;;2.08;0.88;;;;;;;21.18;57.40;101194.13;5044399;28;20497;-81
2022/10/03 03:26:21;;;;;;;1.63;0.90;;;;;;;21.21;58.26;101212.78;5067569;28;20472;-81
2022/10/03 03:28:50;;;;;;;0.82;0.73;;;;;;;21.21;57.33;101207.50;5069902;28;20040;-81
2022/10/03 03:31:28;;;;;;;0.95;0.80;;;;;;;21.26;57.63;101202.25;5069775;28;20024;-80
2022/10/03 03:34:21;;;;;;;0.80;0.80;;;;;;;21.25;57.59;101197.78;5059264;28;20036;-81
2022/10/03 03:36:50;;;;;;;1.05;0.88;;;;;;;21.26;58.08;101192.50;5065128;28;20459;-81
2022/10/03 03:39:37;;;;;;;1.00;0.85;;;;;;;21.22;57.70;101184.47;5060329;28;20246;-81
2022/10/03 03:42:22;;;;;;;1.33;0.70;;;;;;;21.23;57.72;101175.63;5067369;28;20441;-81
2022/10/03 03:45:36;;;;;;;2.45;0.73;;;;;;;21.21;58.13;101166.72;5055606;28;20111;-81
2022/10/03 03:48:23;;;;;;;1.63;1.05;;;;;;;21.19;57.83;101173.78;4990331;28;20050;-81
2022/10/03 03:51:18;;;;;;;0.70;0.70;;;;;;;21.15;57.75;101159.56;4993004;28;20516;-81
2022/10/03 03:53:49;;;;;;;1.20;0.90;;;;;;;21.15;58.06;101163.09;5040184;28;20037;-81
2022/10/03 03:56:40;;;;;;;1.70;1.00;;;;;;;21.15;58.21;101159.56;5065730;28;20482;-81
2022/10/03 03:59:12;;;;;;;1.50;1.05;;;;;;;21.14;57.49;101161.34;5041192;28;20031;-81
2022/10/03 04:02:05;;;;;;;0.80;0.80;;;;;;;21.15;58.63;101156.91;5072737;28;20032;-82
2022/10/03 04:04:43;;;;;;;2.42;0.88;;;;;;;21.14;57.91;101157.75;5048613;28;20032;-82
2022/10/03 04:07:39;;;;;;;1.10;0.70;;;;;;;21.12;58.25;101159.50;5073445;28;20063;-82
2022/10/03 04:10:16;;;;;;;1.85;1.00;;;;;;;21.14;58.23;101163.06;5064335;28;20040;-81
2022/10/03 04:13:00;;;;;;;1.45;0.82;;;;;;;21.05;57.83;101150.53;5071723;28;20055;-81
2022/10/03 04:15:38;;;;;;;1.77;1.00;;;;;;;21.14;58.33;101169.31;5070838;28;20409;-80
2022/10/03 04:21:30;;;;;;;2.25;1.02;;;;;;;21.14;57.66;101168.38;5073017;28;20102;-81
2022/10/03 04:24:22;;;;;;;1.60;0.95;;;;;;;20.98;58.44;101148.66;5074336;28;20024;-81
2022/10/03 04:26:47;;;;;;;1.30;1.00;;;;;;;21.10;58.30;101170.13;5069952;28;20020;-81
2022/10/03 04:29:39;;;;;;;1.77;0.90;;;;;;;21.11;58.17;101160.38;5059486;28;20044;-80
2022/10/03 04:32:07;;;;;;;1.10;1.00;;;;;;;21.00;58.29;101167.28;5069728;28;20020;-81
2022/10/03 04:34:43;;;;;;;1.48;1.13;;;;;;;21.02;57.56;101152.25;5059741;28;21450;-80
2022/10/03 04:37:24;;;;;;;0.90;0.90;;;;;;;21.01;57.83;101164.63;5039146;28;20029;-80
2022/10/03 04:39:58;;;;;;;3.83;1.17;;;;;;;21.04;57.87;101169.09;5073504;28;20063;-81
2022/10/03 04:42:48;;;;;;;2.25;1.00;;;;;;;21.03;57.54;101173.50;5054251;28;20478;-80
2022/10/03 04:45:38;;;;;;;1.50;0.80;;;;;;;21.04;58.31;101172.66;5071839;28;20115;-80
2022/10/03 04:48:32;;;;;;;1.15;0.93;;;;;;;21.02;57.87;101170.81;5069793;28;20044;-80
2022/10/03 04:51:03;;;;;;;2.22;1.10;;;;;;;21.02;58.16;101166.44;5043563;28;20086;-80
2022/10/03 04:53:55;;;;;;;1.95;1.30;;;;;;;20.92;57.99;101156.50;5071580;28;20452;-83
2022/10/03 04:56:29;;;;;;;1.45;1.10;;;;;;;20.82;58.34;101149.25;5063563;28;20553;-82
2022/10/03 04:59:21;;;;;;;1.55;1.00;;;;;;;20.92;58.31;101149.44;5062957;28;20024;-84
2022/10/03 05:01:51;;;;;;;1.25;0.93;;;;;;;21.00;57.71;101164.63;5071875;28;20032;-82
2022/10/03 05:04:37;;;;;;;1.85;0.80;;;;;;;20.93;59.19;101155.63;5057301;28;20024;-83
2022/10/03 05:07:10;;;;;;;1.08;0.88;;;;;;;20.94;58.34;101150.34;5072500;28;20024;-83
2022/10/03 05:09:59;;;;;;;1.73;0.82;;;;;;;20.96;57.95;101146.84;5026265;28;20093;-83
2022/10/03 05:12:48;;;;;;;1.85;1.08;;;;;;;20.95;58.39;101140.63;5053801;28;20036;-83
2022/10/03 05:15:37;;;;;;;1.30;0.98;;;;;;;20.91;58.31;101129.06;5069079;28;20056;-82
2022/10/03 05:18:03;;;;;;;2.33;1.05;;;;;;;20.93;59.13;101135.31;5070777;28;20108;-84
2022/10/03 05:20:50;;;;;;;2.17;0.88;;;;;;;20.92;58.19;101140.59;5059522;28;20462;-81
2022/10/03 05:23:45;;;;;;;1.52;0.98;;;;;;;20.85;58.20;101121.00;5054922;28;20398;-84
2022/10/03 05:26:44;;;;;;;1.77;0.90;;;;;;;20.83;57.45;101117.44;5060358;28;20028;-85
2022/10/03 05:29:24;;;;;;;1.73;0.90;;;;;;;20.93;58.50;101134.38;5064502;28;20045;-85
2022/10/03 05:31:57;;;;;;;1.70;0.90;;;;;;;20.92;58.71;101124.66;5057079;28;20025;-84
2022/10/03 05:34:37;;;;;;;0.90;0.77;;;;;;;20.89;58.50;101129.88;5051281;28;20383;-85
2022/10/03 05:37:27;;;;;;;1.17;0.93;;;;;;;20.86;58.82;101125.44;5058660;28;20032;-84
2022/10/03 05:40:12;;;;;;;1.73;0.90;;;;;;;20.90;58.66;101111.34;5070089;28;20063;-83
2022/10/03 05:42:50;;;;;;;1.40;0.93;;;;;;;20.78;58.77;101096.97;5069234;28;20040;-84
2022/10/03 05:45:30;;;;;;;1.30;0.98;;;;;;;20.86;58.92;101130.75;5068550;28;20033;-84
2022/10/03 05:48:23;;;;;;;2.78;0.98;;;;;;;20.84;58.34;101129.81;5067175;28;20280;-83
2022/10/03 05:51:01;;;;;;;1.45;1.05;;;;;;;20.87;58.82;101132.53;5066846;28;20412;-83
2022/10/03 05:54:04;;;;;;;1.25;1.00;;;;;;;20.74;58.93;101126.13;5063474;28;20032;-82
2022/10/03 05:56:50;;;;;;;1.25;1.00;;;;;;;20.81;58.41;101142.16;5039409;28;20064;-83
2022/10/03 05:59:32;;;;;;;3.90;1.02;;;;;;;20.86;58.34;101157.28;5064866;28;20091;-84
2022/10/03 06:02:21;;;;;;;1.33;0.93;;;;;;;20.79;58.49;101147.44;5053055;28;20093;-84
2022/10/03 06:05:25;;;;;;;1.25;0.90;;;;;;;20.86;58.21;101161.72;5054197;28;20395;-84
2022/10/03 06:08:08;;;;;;;2.65;1.10;;;;;;;20.90;57.02;101171.53;5057907;28;20123;-83
2022/10/03 06:11:14;;;;;;;0.95;0.85;;;;;;;20.68;58.49;101143.66;5062182;28;20052;-83
2022/10/03 06:14:09;;;;;;;1.40;1.10;;;;;;;20.82;58.55;101165.16;5039713;28;20044;-83
2022/10/03 06:17:05;;;;;;;1.92;1.10;;;;;;;20.85;58.25;101165.22;5067719;28;20039;-84
2022/10/03 06:19:39;;;;;;;1.20;0.90;;;;;;;20.82;58.51;101155.44;5064923;28;20032;-84
2022/10/03 06:22:42;;;;;;;2.67;1.10;;;;;;;20.91;57.88;101147.66;5059836;28;20055;-84
2022/10/03 06:25:45;;;;;;;2.05;1.00;;;;;;;20.85;58.41;101133.34;5070835;28;20535;-85
2022/10/03 06:28:39;;;;;;;1.65;0.90;;;;;;;20.81;58.41;101143.06;5062717;28;20083;-84
2022/10/03 06:31:13;;;;;;;1.10;1.00;;;;;;;20.81;58.47;101140.41;5040466;28;20395;-85
2022/10/03 06:34:19;;;;;;;2.60;1.10;;;;;;;20.80;58.29;101129.75;5040860;28;20065;-84
2022/10/03 06:37:16;;;;;;;0.88;0.80;;;;;;;20.79;58.28;101139.47;5045005;28;20057;-81
2022/10/03 06:40:20;;;;;;;1.42;0.93;;;;;;;20.85;58.18;101157.25;5004202;28;20121;-84
2022/10/03 06:43:00;;;;;;;1.85;1.13;;;;;;;20.89;58.27;101164.41;5044133;28;20033;-84
2022/10/03 06:46:03;;;;;;;1.58;0.95;;;;;;;20.87;58.35;101164.41;5039180;28;20494;-82
2022/10/03 06:48:53;;;;;;;2.05;1.20;;;;;;;20.88;58.19;101173.25;5049884;28;20086;-84
2022/10/03 06:51:47;;;;;;;1.48;0.90;;;;;;;20.88;58.16;101184.75;5045658;28;20486;-84
2022/10/03 06:54:38;;;;;;;3.97;1.38;;;;;;;20.89;57.97;101182.97;5037387;28;20033;-84
2022/10/03 06:57:13;;;;;;;1.42;1.00;;;;;;;20.86;58.26;101182.94;5033460;28;20541;-84
2022/10/03 06:59:50;;;;;;;2.25;1.00;;;;;;;20.85;58.41;101182.06;5061093;28;20716;-84
2022/10/03 07:02:25;;;;;;;1.67;0.98;;;;;;;20.85;58.61;101179.41;5048868;28;20532;-84
2022/10/03 07:05:09;;;;;;;2.38;1.20;;;;;;;20.90;58.15;101180.38;5050451;28;20036;-82
2022/10/03 07:08:04;;;;;;;1.35;1.00;;;;;;;20.84;58.88;101168.75;5050084;28;20021;-83
2022/10/03 07:10:33;;;;;;;1.30;0.90;;;;;;;20.81;58.64;101166.94;5030357;28;20033;-83
2022/10/03 07:13:10;;;;;;;1.45;0.90;;;;;;;20.81;58.99;101168.72;5050503;28;20107;-83
2022/10/03 07:15:42;;;;;;;1.45;0.98;;;;;;;20.88;58.58;101179.44;5053364;28;20442;-82
2022/10/03 07:18:28;;;;;;;2.90;0.88;;;;;;;20.92;58.51;101170.66;5046250;28;20035;-81
2022/10/03 07:21:18;;;;;;;1.70;0.88;;;;;;;20.90;58.79;101156.47;5048557;28;20059;-83
2022/10/03 07:23:47;;;;;;;1.13;0.80;;;;;;;20.73;58.68;101129.63;5049010;28;20100;-82
2022/10/03 07:26:46;;;;;;;1.20;0.98;;;;;;;20.86;58.55;101148.44;5053114;28;20028;-83
2022/10/03 07:29:20;;;;;;;1.27;0.95;;;;;;;20.83;58.42;101137.78;5048140;28;20083;-83
2022/10/03 07:31:58;;;;;;;1.50;0.70;;;;;;;20.86;58.80;101143.13;5049945;28;20056;-83
2022/10/03 07:34:42;;;;;;;2.97;0.80;;;;;;;20.85;58.89;101144.91;5044728;28;20033;-83
2022/10/03 07:40:35;;;;;;;1.27;1.00;;;;;;;20.86;58.35;101156.41;5040788;28;20106;-84
2022/10/03 07:43:37;;;;;;;2.15;1.00;;;;;;;20.89;57.84;101161.75;5050886;28;20127;-83
2022/10/03 07:46:30;;;;;;;3.88;0.75;;;;;;;20.89;58.45;101162.66;5050502;28;20025;-84
2022/10/03 07:49:27;;;;;;;3.83;0.90;;;;;;;20.92;57.47;101152.09;5041529;28;20498;-84
2022/10/03 07:52:30;;;;;;;1.38;0.80;;;;;;;20.87;57.96;101142.25;5057141;28;20021;-83
2022/10/03 07:55:27;;;;;;;0.90;0.70;;;;;;;20.84;58.55;101134.25;5055256;28;20086;-85
2022/10/03 07:58:08;;;;;;;0.95;0.80;;;;;;;20.84;58.40;101132.47;5051931;28;20034;-85
2022/10/03 08:00:40;;;;;;;1.48;0.82;;;;;;;20.91;57.79;101128.16;5050220;28;20116;-84
2022/10/03 08:03:46;;;;;;;1.20;1.00;;;;;;;20.88;58.37;101125.47;5057259;28;20039;-84
2022/10/03 08:06:44;;;;;;;1.33;0.93;;;;;;;20.90;57.49;101119.31;5053370;28;20490;-83
2022/10/03 08:09:47;;;;;;;2.45;0.90;;;;;;;20.85;57.38;101114.78;5044876;28;20037;-82
2022/10/03 08:12:32;;;;;;;5.88;1.00;;;;;;;20.85;57.13;101123.66;5033692;28;20036;-83
2022/10/03 08:15:20;;;;;;;6.55;1.05;;;;;;;20.83;57.45;101119.19;5052505;28;20017;-83
2022/10/03 08:17:51;;;;;;;2.38;0.90;;;;;;;20.92;57.33;101129.97;5049017;28;20029;-84
2022/10/03 08:20:27;;;;;;;3.42;1.05;;;;;;;20.92;57.77;101135.28;5051490;28;20029;-83
2022/10/03 08:23:23;;;;;;;1.40;0.90;;;;;;;20.91;57.97;101112.22;5050089;28;20025;-82
2022/10/03 08:25:54;;;;;;;3.53;0.90;;;;;;;20.85;57.97;101106.81;5031224;28;20462;-84
2022/10/03 08:28:54;;;;;;;4.10;1.20;;;;;;;20.89;57.29;101111.31;5062089;28;20058;-80
2022/10/03 08:31:51;;;;;;;3.75;1.00;;;;;;;20.92;58.01;101101.66;5044864;28;20041;-82
2022/10/03 08:34:58;;;;;;;2.30;0.90;;;;;;;20.91;57.78;101098.94;5043261;28;20032;-83
2022/10/03 08:37:42;;;;;;;0.90;0.70;;;;;;;20.90;58.12;101090.09;5045872;28;20422;-84
2022/10/03 08:40:38;;;;;;;5.07;0.80;;;;;;;20.90;57.44;101092.75;5048047;28;20497;-83
2022/10/03 08:43:10;;;;;;;2.17;0.80;;;;;;;20.94;57.64;101101.69;5049718;28;20095;-83
2022/10/03 08:45:52;;;;;;;2.90;1.00;;;;;;;20.92;57.76;101109.59;5049343;28;20747;-83
2022/10/03 08:48:54;;;;;;;0.80;0.70;;;;;;;20.94;57.22;101107.88;5052503;28;20029;-83
2022/10/03 08:51:45;;;;;;;1.45;0.90;;;;;;;20.88;56.95;101094.50;5036904;28;20025;-83
2022/10/03 08:54:37;;;;;;;3.60;1.00;;;;;;;20.98;56.54;101095.56;5045893;28;20116;-83
2022/10/03 08:57:23;;;;;;;2.85;0.85;;;;;;;20.99;56.66;101092.00;5014511;28;20147;-83
2022/10/03 09:00:06;;;;;;;2.88;0.90;;;;;;;20.99;56.94;101094.66;5049361;28;20034;-82
2022/10/03 09:02:35;;;;;;;1.67;1.05;;;;;;;20.96;57.44;101107.91;5049834;28;20044;-84
2022/10/03 09:05:03;;;;;;;2.10;0.98;;;;;;;20.96;56.80;101120.31;5046047;28;20035;-83
2022/10/03 09:07:51;;;;;;;1.75;0.85;;;;;;;20.96;57.43;101129.16;5050964;28;20029;-83
2022/10/03 09:10:52;;;;;;;3.17;0.90;;;;;;;20.94;56.92;101131.78;5052090;28;20116;-83
2022/10/03 09:13:21;;;;;;;1.48;0.88;;;;;;;20.92;57.76;101133.50;5033446;28;20402;-82
2022/10/03 09:16:08;;;;;;;2.45;0.90;;;;;;;20.90;56.79;101134.34;5043716;28;20048;-82
2022/10/03 09:18:52;;;;;;;2.72;0.95;;;;;;;20.92;56.51;101145.88;5058904;28;20116;-83
2022/10/03 09:21:36;;;;;;;2.83;0.80;;;;;;;20.94;56.45;101147.69;5049316;28;20028;-83
2022/10/03 09:24:20;;;;;;;6.13;1.20;;;;;;;20.93;56.60;101135.31;5051143;28;20033;-83
2022/10/03 09:27:13;;;;;;;1.35;0.93;;;;;;;20.90;57.30;101142.31;5061490;28;20025;-82
2022/10/03 09:30:00;;;;;;;0.75;0.70;;;;;;;20.90;56.74;101147.63;5067546;28;20425;-83
2022/10/03 09:32:44;;;;;;;1.13;0.80;;;;;;;20.87;56.86;101145.81;5071200;28;20035;-84
2022/10/03 09:35:43;;;;;;;1.40;0.90;;;;;;;20.84;57.75;101136.91;5072235;28;20490;-81
2022/10/03 09:38:28;;;;;;;6.55;1.40;;;;;;;20.85;57.36;101144.91;5053205;28;20107;-83
2022/10/03 09:40:56;;;;;;;6.20;1.00;;;;;;;20.85;56.88;101147.53;5067340;28;20113;-81
2022/10/03 09:43:28;;;;;;;2.55;0.80;;;;;;;20.81;57.71;101142.16;5058998;28;20051;-83
2022/10/03 09:46:26;;;;;;;5.80;1.27;;;;;;;20.83;57.71;101151.94;5053185;28;20032;-83
2022/10/03 09:48:54;;;;;;;;;;;;;;;20.85;57.25;101151.94;5036511;28;20087;-83
2022/10/03 09:51:24;;;;;;;3.75;0.98;;;;;;;20.78;57.56;101161.56;5071840;28;20373;-82
2022/10/03 09:54:27;;;;;;;1.95;0.98;;;;;;;20.82;57.34;101155.44;5071908;28;20056;-84
2022/10/03 09:57:13;;;;;;;0.98;0.93;;;;;;;20.71;57.02;101130.47;5052192;28;20119;-83
2022/10/03 09:59:57;;;;;;;2.70;0.90;;;;;;;20.74;57.38;101143.78;5052383;28;20041;-84
2022/10/03 10:03:00;;;;;;;3.80;0.90;;;;;;;20.70;57.46;101148.16;5063245;28;20028;-82
2022/10/03 10:05:44;;;;;;;2.63;1.08;;;;;;;20.67;57.71;101156.06;5056688;28;20029;-82
2022/10/03 10:08:31;;;;;;;1.42;0.70;;;;;;;20.72;57.16;101165.00;5050415;28;20504;-82
2022/10/03 10:11:03;;;;;;;4.43;0.90;;;;;;;20.76;56.85;101151.78;5063655;28;20032;-83
2022/10/03 10:13:48;;;;;;;1.40;0.93;;;;;;;20.84;56.95;101150.16;5070532;28;20029;-84
2022/10/03 10:16:47;;;;;;;2.58;0.90;;;;;;;20.80;56.40;101157.16;5069800;28;20498;-83
2022/10/03 10:19:21;;;;;;;1.63;0.88;;;;;;;20.85;57.30;101167.88;5068530;28;20035;-83
2022/10/03 10:22:28;;;;;;;1.65;1.00;;;;;;;20.76;58.42;101162.41;5060468;28;20031;-83
2022/10/03 10:25:12;;;;;;;0.90;0.70;;;;;;;20.82;56.41;101163.41;5002429;28;20058;-82
2022/10/03 10:28:15;;;;;;;1.75;0.82;;;;;;;20.80;57.52;101165.13;4989643;28;20037;-83
2022/10/03 10:31:24;;;;;;;1.27;0.70;;;;;;;20.76;56.42;101163.28;5012580;28;20449;-82
2022/10/03 10:34:21;;;;;;;;;;;;;;;20.83;56.40;101161.66;5031638;28;20497;-82
2022/10/03 10:36:52;;;;;;;1.27;0.90;;;;;;;20.73;58.11;101177.41;5013897;28;19931;-82
2022/10/03 10:39:37;;;;;;;1.27;0.90;;;;;;;20.71;56.68;101175.59;5069506;28;20046;-83
2022/10/03 10:42:48;;;;;;;2.42;0.93;;;;;;;20.79;56.52;101176.63;5053396;28;20040;-82
2022/10/03 10:45:23;;;;;;;1.73;0.82;;;;;;;20.78;56.54;101169.53;5047202;28;20079;-82
2022/10/03 10:48:27;;;;;;;2.08;0.95;;;;;;;20.70;56.72;101161.44;5061629;28;20016;-82
2022/10/03 10:50:53;;;;;;;1.58;0.77;;;;;;;20.79;56.77;101170.44;5041986;28;20032;-82
2022/10/03 10:53:57;;;;;;;1.10;0.90;;;;;;;20.77;56.78;101167.75;5067768;28;20039;-82
2022/10/03 10:56:44;;;;;;;1.77;0.90;;;;;;;20.78;57.24;101160.66;5039663;28;20090;-82
2022/10/03 10:59:46;;;;;;;1.52;0.90;;;;;;;20.80;57.37;101159.81;5056429;28;20032;-82
2022/10/03 11:02:36;;;;;;;2.03;0.88;;;;;;;20.67;57.62;101141.91;5055926;28;20544;-82
2022/10/03 11:05:35;;;;;;;1.52;1.00;;;;;;;20.73;57.47;101153.50;5071305;28;20514;-83
2022/10/03 11:08:22;;;;;;;2.75;0.90;;;;;;;20.72;57.89;101157.06;5059355;28;20025;-83
2022/10/03 11:11:18;;;;;;;1.05;0.80;;;;;;;20.76;57.68;101159.75;5070979;28;20055;-82
2022/10/03 11:14:00;;;;;;;1.38;0.80;;;;;;;20.70;57.81;101144.59;5059613;28;20036;-82
2022/10/03 11:16:47;;;;;;;0.90;0.90;;;;;;;20.77;58.14;101154.47;5055757;28;20027;-84
2022/10/03 11:19:30;;;;;;;1.52;0.90;;;;;;;20.74;58.24;101155.31;5058030;28;20028;-83
2022/10/03 11:22:25;;;;;;;1.10;0.90;;;;;;;20.74;58.17;101151.75;5064768;28;20047;-82
2022/10/03 11:25:06;;;;;;;2.55;1.08;;;;;;;20.72;58.98;101159.69;5041515;28;20028;-82
2022/10/03 11:28:13;;;;;;;1.38;1.10;;;;;;;20.72;58.56;101149.09;5070469;28;20115;-83
2022/10/03 11:30:50;;;;;;;1.33;1.02;;;;;;;20.71;58.80;101152.59;5067948;28;20049;-82
2022/10/03 11:33:50;;;;;;;1.92;0.98;;;;;;;20.72;58.91;101149.09;5051497;28;20024;-82
2022/10/03 11:36:33;;;;;;;1.10;0.88;;;;;;;20.72;59.18;101149.09;5066944;28;20036;-82
2022/10/03 11:39:17;;;;;;;3.88;0.93;;;;;;;20.71;59.10;101147.28;5070801;28;20452;-82
2022/10/03 11:41:53;;;;;;;2.17;0.90;;;;;;;20.75;59.01;101142.94;5070296;28;20024;-81
2022/10/03 11:44:49;;;;;;;1.75;0.90;;;;;;;20.74;59.19;101134.09;5057880;28;20032;-82
2022/10/03 11:47:43;;;;;;;1.15;1.00;;;;;;;20.72;59.15;101135.81;5031806;28;20052;-81
2022/10/03 11:50:29;;;;;;;0.90;0.90;;;;;;;20.69;59.17;101135.75;5069669;28;20485;-81
2022/10/03 11:53:14;;;;;;;1.90;1.13;;;;;;;20.73;59.31;101136.69;5070846;28;20028;-82
2022/10/03 11:55:45;;;;;;;1.83;1.10;;;;;;;20.71;59.24;101133.13;5059354;28;20074;-81
2022/10/03 11:58:35;;;;;;;2.20;1.20;;;;;;;20.69;59.26;101127.78;5059365;28;20036;-81
2022/10/03 12:01:03;;;;;;;1.90;1.27;;;;;;;20.70;59.37;101126.94;5062324;28;20712;-82
2022/10/03 12:03:30;;;;;;;1.83;1.10;;;;;;;20.68;59.42;101123.34;5063073;28;20107;-81
2022/10/03 12:09:07;;;;;;;2.45;1.23;;;;;;;20.70;59.56;101115.41;5061512;28;20091;-80
2022/10/03 12:11:40;;;;;;;2.22;1.40;;;;;;;20.68;59.62;101109.16;5073813;28;20409;-82
2022/10/03 12:14:08;;;;;;;2.03;1.25;;;;;;;20.69;59.73;101118.94;5068933;28;20024;-81
2022/10/03 12:16:56;;;;;;;1.73;1.17;;;;;;;20.69;59.83;101103.91;5073995;28;20032;-81
2022/10/03 12:19:33;;;;;;;2.25;1.17;;;;;;;20.70;59.79;101105.69;5073892;28;20104;-82
2022/10/03 12:22:17;;;;;;;2.22;1.00;;;;;;;20.69;59.98;101106.56;5065248;28;20024;-81
2022/10/03 12:24:44;;;;;;;2.97;1.05;;;;;;;20.67;60.01;101108.28;5073577;28;20489;-81
2022/10/03 12:27:19;;;;;;;2.40;1.30;;;;;;;20.69;60.01;101100.34;5073919;28;20577;-82
2022/10/03 12:29:53;;;;;;;2.05;0.90;;;;;;;20.67;60.04;101099.44;5063025;28;20060;-81
2022/10/03 12:32:57;;;;;;;2.03;1.10;;;;;;;20.68;60.22;101102.13;5068891;28;20029;-81
2022/10/03 12:35:41;;;;;;;1.45;1.00;;;;;;;20.65;60.18;101099.41;5073633;28;20024;-82
2022/10/03 12:38:19;;;;;;;1.45;1.10;;;;;;;20.68;60.08;101098.56;5066233;28;20028;-81
2022/10/03 12:41:10;;;;;;;1.80;1.05;;;;;;;20.71;60.03;101101.28;5073668;28;20032;-82
2022/10/03 12:44:03;;;;;;;1.75;1.10;;;;;;;20.72;60.33;101092.44;5063757;28;20085;-82
2022/10/03 12:46:29;;;;;;;1.77;1.10;;;;;;;20.70;60.20;101089.78;5066796;28;20040;-83
2022/10/03 12:49:03;;;;;;;1.85;0.90;;;;;;;20.67;60.44;101088.81;5072937;28;20020;-82
2022/10/03 12:51:47;;;;;;;1.92;1.00;;;;;;;20.60;60.27;101071.91;5066421;28;20024;-81
2022/10/03 12:54:44;;;;;;;1.83;1.20;;;;;;;20.70;60.26;101089.78;5069072;28;20032;-81
2022/10/03 12:57:09;;;;;;;1.75;1.30;;;;;;;20.68;60.47;101083.56;5024746;28;20051;-82
2022/10/03 12:59:41;;;;;;;1.40;1.20;;;;;;;20.70;60.47;101083.56;5062069;28;20111;-81